Time,TemperatureF,DewpointF,PressureIn,WindDirection,WindDirectionDegrees,WindSpeedMPH,WindSpeedGustMPH,Humidity,HourlyPrecipIn,Conditions,Clouds,dailyrainin,SoftwareType,DateUTC
2013-08-31 00:06:00,75.7,73.0,29.91,SSE,167,0.0,0.0,90,0.00,,,0.00,weatherlink.com 1.10,2013-08-31 05:06:00,
2013-08-31 00:21:00,75.1,73.0,29.90,SSE,167,0.0,0.0,92,0.00,,,0.00,weatherlink.com 1.10,2013-08-31 05:21:00,
2013-08-31 00:36:00,74.6,72.0,29.91,SSE,167,0.0,0.0,92,0.00,,,0.00,weatherlink.com 1.10,2013-08-31 05:36:00,
2013-08-31 00:51:00,74.2,72.0,29.90,SSE,167,0.0,0.0,93,0.00,,,0.00,weatherlink.com 1.10,2013-08-31 05:51:00,
2013-08-31 01:06:00,73.9,72.0,29.90,SSE,167,0.0,0.0,94,0.00,,,0.00,weatherlink.com 1.10,2013-08-31 06:06:00,
2013-08-31 01:21:00,73.6,72.0,29.90,SSE,167,0.0,0.0,94,0.00,,,0.00,weatherlink.com 1.10,2013-08-31 06:21:00,
2013-08-31 01:36:00,73.2,71.0,29.90,SSE,167,0.0,0.0,94,0.00,,,0.00,weatherlink.com 1.10,2013-08-31 06:36:00,
2013-08-31 01:51:00,73.0,72.0,29.90,SSE,167,0.0,0.0,95,0.00,,,0.00,weatherlink.com 1.10,2013-08-31 06:51:00,
2013-08-31 02:07:00,72.7,71.0,29.90,SSE,167,0.0,0.0,95,0.00,,,0.00,weatherlink.com 1.10,2013-08-31 07:07:00,
2013-08-31 02:22:00,72.6,71.0,29.90,SSE,167,0.0,0.0,96,0.00,,,0.00,weatherlink.com 1.10,2013-08-31 07:22:00,
2013-08-31 02:37:00,72.6,71.0,29.90,SSE,167,0.0,0.0,96,0.00,,,0.00,weatherlink.com 1.10,2013-08-31 07:37:00,
2013-08-31 02:52:00,72.2,71.0,29.90,SSE,167,0.0,0.0,96,0.00,,,0.00,weatherlink.com 1.10,2013-08-31 07:52:00,
2013-08-31 03:07:00,72.1,71.0,29.90,SSE,167,0.0,0.0,96,0.00,,,0.00,weatherlink.com 1.10,2013-08-31 08:07:00,
2013-08-31 03:22:00,71.9,71.0,29.90,SSE,167,0.0,0.0,96,0.00,,,0.00,weatherlink.com 1.10,2013-08-31 08:22:00,
2013-08-31 03:37:00,71.7,71.0,29.89,SSE,167,0.0,0.0,96,0.00,,,0.00,weatherlink.com 1.10,2013-08-31 08:37:00,
2013-08-31 03:52:00,71.5,70.0,29.90,SSE,167,0.0,0.0,96,0.00,,,0.00,weatherlink.com 1.10,2013-08-31 08:52:00,
2013-08-31 04:07:00,71.3,70.0,29.90,SSE,167,0.0,0.0,97,0.00,,,0.00,weatherlink.com 1.10,2013-08-31 09:07:00,
2013-08-31 04:22:00,71.3,70.0,29.90,SSE,167,0.0,0.0,97,0.00,,,0.00,weatherlink.com 1.10,2013-08-31 09:22:00,
2013-08-31 04:37:00,71.0,70.0,29.90,SSE,167,0.0,0.0,97,0.00,,,0.00,weatherlink.com 1.10,2013-08-31 09:37:00,
2013-08-31 04:52:00,70.8,70.0,29.90,SSE,167,0.0,0.0,97,0.00,,,0.00,weatherlink.com 1.10,2013-08-31 09:52:00,
2013-08-31 05:07:00,70.8,70.0,29.90,SSE,167,0.0,0.0,97,0.00,,,0.00,weatherlink.com 1.10,2013-08-31 10:07:00,
2013-08-31 05:22:00,70.9,70.0,29.90,SSE,167,0.0,0.0,97,0.00,,,0.00,weatherlink.com 1.10,2013-08-31 10:22:00,
2013-08-31 05:37:00,70.7,70.0,29.91,SSE,167,0.0,0.0,97,0.00,,,0.00,weatherlink.com 1.10,2013-08-31 10:37:00,
2013-08-31 05:52:00,70.6,70.0,29.90,SSE,167,0.0,0.0,97,0.00,,,0.00,weatherlink.com 1.10,2013-08-31 10:52:00,
2013-08-31 06:07:00,70.6,70.0,29.91,SSE,167,0.0,0.0,98,0.00,,,0.00,weatherlink.com 1.10,2013-08-31 11:07:00,
2013-08-31 06:22:00,70.6,70.0,29.91,SSE,167,0.0,0.0,98,0.00,,,0.00,weatherlink.com 1.10,2013-08-31 11:22:00,
2013-08-31 06:37:00,70.5,70.0,29.91,SSE,167,0.0,0.0,98,0.00,,,0.00,weatherlink.com 1.10,2013-08-31 11:37:00,
2013-08-31 06:52:00,70.4,70.0,29.92,SSE,167,0.0,0.0,98,0.00,,,0.00,weatherlink.com 1.10,2013-08-31 11:52:00,
2013-08-31 07:07:00,70.6,70.0,29.93,SSE,167,0.0,0.0,98,0.00,,,0.00,weatherlink.com 1.10,2013-08-31 12:07:00,
2013-08-31 07:22:00,71.6,71.0,29.93,SSE,167,0.0,0.0,99,0.00,,,0.00,weatherlink.com 1.10,2013-08-31 12:22:00,
2013-08-31 07:37:00,72.6,72.0,29.93,SSE,167,0.0,0.0,99,0.00,,,0.00,weatherlink.com 1.10,2013-08-31 12:37:00,
2013-08-31 07:52:00,74.3,74.0,29.93,SSE,167,0.0,0.0,99,0.00,,,0.00,weatherlink.com 1.10,2013-08-31 12:52:00,
2013-08-31 08:07:00,76.4,76.0,29.94,SSE,167,0.0,0.0,99,0.00,,,0.00,weatherlink.com 1.10,2013-08-31 13:07:00,
2013-08-31 08:22:00,78.4,77.0,29.95,SSE,167,0.0,0.0,95,0.00,,,0.00,weatherlink.com 1.10,2013-08-31 13:22:00,
2013-08-31 08:37:00,80.5,77.0,29.95,SSE,167,0.0,0.0,90,0.00,,,0.00,weatherlink.com 1.10,2013-08-31 13:37:00,
2013-08-31 08:52:00,82.6,78.0,29.95,SW,214,0.0,0.0,85,0.00,,,0.00,weatherlink.com 1.10,2013-08-31 13:52:00,
2013-08-31 09:07:00,84.3,79.0,29.95,South,175,0.0,0.0,83,0.00,,,0.00,weatherlink.com 1.10,2013-08-31 14:07:00,
2013-08-31 09:22:00,85.4,79.0,29.95,ENE,76,0.0,2.0,80,0.00,,,0.00,weatherlink.com 1.10,2013-08-31 14:22:00,
2013-08-31 09:37:00,85.4,77.0,29.95,NNE,13,0.0,3.0,77,0.00,,,0.00,weatherlink.com 1.10,2013-08-31 14:37:00,
2013-08-31 09:52:00,85.2,78.0,29.95,NNE,13,0.0,0.0,78,0.00,,,0.00,weatherlink.com 1.10,2013-08-31 14:52:00,
2013-08-31 10:07:00,85.5,76.0,29.96,North,360,0.0,0.0,74,0.00,,,0.00,weatherlink.com 1.10,2013-08-31 15:07:00,
2013-08-31 10:22:00,86.4,77.0,29.95,NW,325,0.0,1.0,74,0.00,,,0.00,weatherlink.com 1.10,2013-08-31 15:22:00,
2013-08-31 10:38:00,87.9,78.0,29.95,NW,311,0.0,2.0,73,0.00,,,0.00,weatherlink.com 1.10,2013-08-31 15:38:00,
2013-08-31 10:53:00,87.5,77.0,29.95,SW,235,0.0,3.0,72,0.00,,,0.00,weatherlink.com 1.10,2013-08-31 15:53:00,
2013-08-31 11:08:00,89.2,78.0,29.94,NW,314,0.0,0.0,69,0.00,,,0.00,weatherlink.com 1.10,2013-08-31 16:08:00,
2013-08-31 11:23:00,88.7,75.0,29.94,SE,144,3.0,3.0,65,0.00,,,0.00,weatherlink.com 1.10,2013-08-31 16:23:00,
2013-08-31 11:38:00,88.0,75.0,29.94,NW,305,0.0,3.0,66,0.00,,,0.00,weatherlink.com 1.10,2013-08-31 16:38:00,
2013-08-31 11:53:00,89.4,77.0,29.93,West,260,0.0,1.0,66,0.00,,,0.00,weatherlink.com 1.10,2013-08-31 16:53:00,
2013-08-31 12:08:00,89.2,76.0,29.93,WNW,290,0.0,3.0,65,0.00,,,0.00,weatherlink.com 1.10,2013-08-31 17:08:00,
2013-08-31 12:23:00,88.8,76.0,29.92,West,260,0.0,3.0,65,0.00,,,0.00,weatherlink.com 1.10,2013-08-31 17:23:00,
2013-08-31 12:38:00,89.3,75.0,29.92,East,98,0.0,0.0,63,0.00,,,0.00,weatherlink.com 1.10,2013-08-31 17:38:00,
2013-08-31 12:53:00,90.1,75.0,29.92,WSW,248,0.0,3.0,62,0.00,,,0.00,weatherlink.com 1.10,2013-08-31 17:53:00,
2013-08-31 13:08:00,91.9,77.0,29.91,WNW,292,0.0,4.0,62,0.00,,,0.00,weatherlink.com 1.10,2013-08-31 18:08:00,
2013-08-31 13:23:00,91.1,76.0,29.91,WSW,255,1.0,7.0,61,0.00,,,0.00,weatherlink.com 1.10,2013-08-31 18:23:00,
2013-08-31 13:38:00,92.3,75.0,29.90,West,275,1.0,4.0,58,0.00,,,0.00,weatherlink.com 1.10,2013-08-31 18:38:00,
2013-08-31 13:53:00,92.7,75.0,29.89,South,175,0.0,4.0,56,0.00,,,0.00,weatherlink.com 1.10,2013-08-31 18:53:00,
2013-08-31 14:08:00,92.3,75.0,29.89,SSE,166,0.0,5.0,57,0.00,,,0.00,weatherlink.com 1.10,2013-08-31 19:08:00,
2013-08-31 14:23:00,93.0,74.0,29.89,South,184,0.0,4.0,54,0.00,,,0.00,weatherlink.com 1.10,2013-08-31 19:23:00,
2013-08-31 14:38:00,92.8,74.0,29.88,West,265,2.0,5.0,54,0.00,,,0.00,weatherlink.com 1.10,2013-08-31 19:38:00,
2013-08-31 14:53:00,93.4,74.0,29.87,South,176,0.0,5.0,54,0.00,,,0.00,weatherlink.com 1.10,2013-08-31 19:53:00,
2013-08-31 15:08:00,93.5,74.0,29.86,SW,221,0.0,4.0,54,0.00,,,0.00,weatherlink.com 1.10,2013-08-31 20:08:00,
2013-08-31 15:23:00,93.3,74.0,29.86,WNW,298,2.0,5.0,54,0.00,,,0.00,weatherlink.com 1.10,2013-08-31 20:23:00,
2013-08-31 15:38:00,94.0,74.0,29.85,SW,229,1.0,7.0,53,0.00,,,0.00,weatherlink.com 1.10,2013-08-31 20:38:00,
2013-08-31 15:53:00,93.6,75.0,29.85,WSW,252,0.0,5.0,54,0.00,,,0.00,weatherlink.com 1.10,2013-08-31 20:53:00,
2013-08-31 16:08:00,94.3,74.0,29.84,SW,234,2.0,6.0,52,0.00,,,0.00,weatherlink.com 1.10,2013-08-31 21:08:00,
2013-08-31 16:23:00,93.8,75.0,29.84,South,174,2.0,5.0,55,0.00,,,0.00,weatherlink.com 1.10,2013-08-31 21:23:00,
2013-08-31 16:38:00,94.2,75.0,29.84,SW,228,2.0,5.0,53,0.00,,,0.00,weatherlink.com 1.10,2013-08-31 21:38:00,
2013-08-31 16:53:00,94.0,74.0,29.83,SW,234,0.0,7.0,52,0.00,,,0.00,weatherlink.com 1.10,2013-08-31 21:53:00,
2013-08-31 17:08:00,93.3,73.0,29.83,WSW,251,3.0,5.0,52,0.00,,,0.00,weatherlink.com 1.10,2013-08-31 22:08:00,
2013-08-31 17:23:00,93.1,72.0,29.83,SW,232,1.0,5.0,51,0.00,,,0.00,weatherlink.com 1.10,2013-08-31 22:23:00,
2013-08-31 17:38:00,93.4,73.0,29.82,West,266,0.0,3.0,52,0.00,,,0.00,weatherlink.com 1.10,2013-08-31 22:38:00,
2013-08-31 17:53:00,92.6,71.0,29.82,WSW,247,3.0,9.0,49,0.00,,,0.00,weatherlink.com 1.10,2013-08-31 22:53:00,
2013-08-31 18:08:00,92.5,72.0,29.82,WSW,248,0.0,5.0,51,0.00,,,0.00,weatherlink.com 1.10,2013-08-31 23:08:00,
2013-08-31 18:23:00,91.5,72.0,29.82,WSW,248,0.0,2.0,53,0.00,,,0.00,weatherlink.com 1.10,2013-08-31 23:23:00,
2013-08-31 18:38:00,90.7,72.0,29.83,SW,235,0.0,1.0,55,0.00,,,0.00,weatherlink.com 1.10,2013-08-31 23:38:00,
2013-08-31 18:53:00,89.5,73.0,29.83,SW,233,0.0,2.0,58,0.00,,,0.00,weatherlink.com 1.10,2013-08-31 23:53:00,
2013-08-31 19:08:00,88.5,72.0,29.83,SW,233,0.0,0.0,59,0.00,,,0.00,weatherlink.com 1.10,2013-09-01 00:08:00,
2013-08-31 19:23:00,87.1,73.0,29.83,SW,233,0.0,0.0,63,0.00,,,0.00,weatherlink.com 1.10,2013-09-01 00:23:00,
2013-08-31 19:38:00,85.8,73.0,29.83,SW,233,0.0,0.0,66,0.00,,,0.00,weatherlink.com 1.10,2013-09-01 00:38:00,
2013-08-31 19:53:00,84.8,74.0,29.84,SW,233,0.0,0.0,69,0.00,,,0.00,weatherlink.com 1.10,2013-09-01 00:53:00,
2013-08-31 20:08:00,83.7,74.0,29.84,WSW,242,0.0,0.0,72,0.00,,,0.00,weatherlink.com 1.10,2013-09-01 01:08:00,
2013-08-31 20:23:00,82.9,75.0,29.85,WSW,250,0.0,3.0,76,0.00,,,0.00,weatherlink.com 1.10,2013-09-01 01:23:00,
2013-08-31 20:38:00,82.3,75.0,29.86,WSW,242,0.0,1.0,79,0.00,,,0.00,weatherlink.com 1.10,2013-09-01 01:38:00,
2013-08-31 20:53:00,81.8,75.0,29.86,SW,223,0.0,1.0,80,0.00,,,0.00,weatherlink.com 1.10,2013-09-01 01:53:00,
2013-08-31 21:08:00,81.3,75.0,29.86,SW,223,0.0,0.0,82,0.00,,,0.00,weatherlink.com 1.10,2013-09-01 02:08:00,
2013-08-31 21:23:00,80.9,75.0,29.86,SW,219,0.0,1.0,83,0.00,,,0.00,weatherlink.com 1.10,2013-09-01 02:23:00,
2013-08-31 21:38:00,80.5,75.0,29.87,SW,218,0.0,1.0,84,0.00,,,0.00,weatherlink.com 1.10,2013-09-01 02:38:00,
2013-08-31 21:53:00,80.3,75.0,29.87,SSE,164,0.0,3.0,84,0.00,,,0.00,weatherlink.com 1.10,2013-09-01 02:53:00,
2013-08-31 22:08:00,79.8,75.0,29.87,SSE,164,0.0,1.0,86,0.00,,,0.00,weatherlink.com 1.10,2013-09-01 03:08:00,
2013-08-31 22:23:00,79.4,75.0,29.88,SSE,164,0.0,2.0,87,0.00,,,0.00,weatherlink.com 1.10,2013-09-01 03:23:00,
2013-08-31 22:38:00,79.0,75.0,29.87,SSE,164,0.0,0.0,88,0.00,,,0.00,weatherlink.com 1.10,2013-09-01 03:38:00,
2013-08-31 22:53:00,78.7,75.0,29.87,SSE,167,0.0,2.0,89,0.00,,,0.00,weatherlink.com 1.10,2013-09-01 03:53:00,
2013-08-31 23:08:00,78.5,75.0,29.87,SSE,167,0.0,1.0,90,0.00,,,0.00,weatherlink.com 1.10,2013-09-01 04:08:00,
2013-08-31 23:23:00,78.4,75.0,29.87,SSE,167,0.0,2.0,90,0.00,,,0.00,weatherlink.com 1.10,2013-09-01 04:23:00,
2013-08-31 23:38:00,78.1,75.0,29.86,SSE,167,0.0,0.0,91,0.00,,,0.00,weatherlink.com 1.10,2013-09-01 04:38:00,
2013-08-31 23:53:00,77.7,75.0,29.86,SSE,167,0.0,1.0,92,0.00,,,0.00,weatherlink.com 1.10,2013-09-01 04:53:00,